Southgate, MI (48195)

03:18 EDT le 29 août 2015 (GMT -0400)
Burns and Eureka | | Change Station
CLOSE
Current Station
Stations météorologiques personnelles
Location: Southgate, MI
Altitude: 587 ft
Stations météo à proximité

Alt. 587 ft 42.20 °N, 83.19 °W | Updated 6 seconds ago

Partiellement nuageux
Partiellement nuageux
70.0 ° F
Paraît 70.0 ° F
N
0.0
Vent Variable Vent de SSO
Gusts 0.0 mph

Aujourd'hui
Haut(e) -- | Bas -- ° F
--% Risque de précip.
Hier
Haut(e) -- | Bas -- ° F
Precip. -- pouce
6:54 AM 8:12 PM
Pleine lune, 100% visible
Pression 30.14 pouce
Visibilité 10.0 Miles terrestres
Nuages Peu 8000 ft
Nuageux 15000 ft
Couvert 18000 ft
Point de rosée 67 ° F
Humidité 89%
Précipitations 0.00 pouce
Profondeur de la couche neigeuse Non disponible.
UV 0.0 sur 12
Pollen 9.30 sur 12
Qualité de l'air Non disponible.
Flu Activity Non disponible.
METAR KDTW 290653Z 17004KT 10SM FEW080 BKN150 OVC180 19/17 A3015 RMK AO2 SLP205 T01890172
Pression 30.14 pouce
Visibilité 10.0 Miles terrestres
Nuages Peu 8000 ft
Nuageux 15000 ft
Couvert 18000 ft
Point de rosée 67 ° F
Humidité 89%
Précipitations 0.00 pouce
Profondeur de la couche neigeuse Non disponible.
UV 0.0 sur 12
Pollen 9.30 sur 12
Qualité de l'air Non disponible.
Flu Activity Non disponible.
METAR KDTW 290653Z 17004KT 10SM FEW080 BKN150 OVC180 19/17 A3015 RMK AO2 SLP205 T01890172

10-Day Weather Forecast

×

Almanac

Astronomie

Aug. 29, 2015 Lever Coucher
Temps réel
Crépuscule civil
Crépuscule nautique
Crépuscule astronomique
Lune
Durée de lumière visible
Longueur du jour
Tomorrow will be .
, % of the Moon is Illuminated

Extrêmes aujourd'hui

State Highs State Lows

Community

WunderPhotos

Upload Photos

1,850,632 Photos téléchargées !

WunderBlogs® & News

Nearby

Qualité de l'air

  Qualité de l'air Indice de la qualité de l'air Polluant
Not available.

Épaisseur de neige

Station Depth Altitude

Activité sismique

Ville Distance Mag. Time & Date
Minimum magnitude displayed is 2.5.

Températures des eaux côtières

Lieu Température

Stations

Stations météo à proximité

Emplacement de la station Température Refroidissement éolien Point de rosée Humidité Vent Precip. Alt. Mise à jour Type